createdAt,value
2018-02-10T00:00:07.337Z,3.76
2018-02-10T00:01:07.364Z,4.05
2018-02-10T00:02:07.392Z,3.86
2018-02-10T00:03:07.422Z,3.76
2018-02-10T00:04:07.449Z,3.86
2018-02-10T00:05:07.475Z,3.86
2018-02-10T00:06:07.511Z,4.14
2018-02-10T00:07:07.534Z,4.14
2018-02-10T00:08:07.560Z,4.14
2018-02-10T00:09:07.587Z,4.14
2018-02-10T00:10:07.658Z,4.14
2018-02-10T00:11:07.664Z,4.14
2018-02-10T00:12:07.671Z,4.14
2018-02-10T00:13:07.699Z,4.14
2018-02-10T00:14:07.726Z,4.05
2018-02-10T00:15:07.755Z,4.05
2018-02-10T00:16:07.804Z,4.05
2018-02-10T00:17:07.810Z,4.05
2018-02-10T00:18:07.838Z,3.86
2018-02-10T00:19:07.887Z,4.14
2018-02-10T00:20:07.894Z,4.05
2018-02-10T00:21:07.922Z,4.05
2018-02-10T00:22:07.951Z,3.86
2018-02-10T00:23:07.978Z,4.24
2018-02-10T00:24:08.006Z,4.05
2018-02-10T00:25:08.033Z,4.05
2018-02-10T00:26:08.061Z,4.05
2018-02-10T00:27:08.089Z,4.05
2018-02-10T00:28:08.117Z,4.05
2018-02-10T00:29:08.144Z,4.05
2018-02-10T00:30:08.173Z,4.14
2018-02-10T00:31:08.201Z,4.14
2018-02-10T00:32:08.229Z,4.05
2018-02-10T00:33:08.256Z,4.14
2018-02-10T00:34:08.285Z,4.14
2018-02-10T00:35:08.339Z,4.14
2018-02-10T00:36:08.340Z,4.05
2018-02-10T00:37:08.367Z,4.14
2018-02-10T00:38:08.395Z,4.14
2018-02-10T00:39:08.425Z,4.14
2018-02-10T00:40:08.452Z,4.14
2018-02-10T00:41:08.479Z,4.24
2018-02-10T00:42:08.508Z,4.14
2018-02-10T00:43:08.535Z,4.14
2018-02-10T00:44:08.564Z,4.24
2018-02-10T00:45:08.590Z,4.05
2018-02-10T00:46:08.644Z,4.05
2018-02-10T00:47:08.647Z,4.14
2018-02-10T00:48:08.674Z,4.05
2018-02-10T00:49:08.702Z,4.14
2018-02-10T00:50:08.730Z,4.05
2018-02-10T00:51:08.757Z,4.05
2018-02-10T00:52:08.786Z,4.24
2018-02-10T00:53:08.816Z,4.05
2018-02-10T00:54:08.841Z,4.14
2018-02-10T00:55:08.899Z,4.14
2018-02-10T00:56:08.898Z,4.14
2018-02-10T00:57:08.928Z,4.14
2018-02-10T00:58:08.952Z,4.14
2018-02-10T00:59:08.981Z,4.14
2018-02-10T01:00:09.009Z,4.14
2018-02-10T01:01:09.039Z,4.05
2018-02-10T01:02:09.064Z,3.95
2018-02-10T01:03:09.092Z,4.14
2018-02-10T01:04:09.120Z,4.24
2018-02-10T01:05:09.147Z,4.05
2018-02-10T01:06:09.179Z,4.14
2018-02-10T01:07:09.232Z,3.95
2018-02-10T01:08:09.232Z,4.14
2018-02-10T01:09:09.259Z,3.95
2018-02-10T01:10:09.287Z,3.95
2018-02-10T01:11:09.315Z,4.14
2018-02-10T01:12:09.375Z,4.14
2018-02-10T01:13:09.383Z,3.95
2018-02-10T01:14:09.440Z,3.95
2018-02-10T01:15:09.456Z,4.05
2018-02-10T01:16:09.460Z,4.24
2018-02-10T01:17:09.481Z,3.95
2018-02-10T01:18:09.510Z,3.95
2018-02-10T01:19:09.538Z,4.05
2018-02-10T01:20:09.566Z,3.95
2018-02-10T01:21:09.593Z,3.95
2018-02-10T01:22:09.621Z,3.95
2018-02-10T01:23:09.653Z,4.14
2018-02-10T01:24:09.677Z,4.14
2018-02-10T01:25:09.754Z,4.14
2018-02-10T01:26:09.732Z,4.14
2018-02-10T01:27:09.760Z,4.14
2018-02-10T01:28:09.796Z,4.14
2018-02-10T01:29:09.817Z,4.05
2018-02-10T01:30:09.845Z,4.14
2018-02-10T01:31:09.872Z,4.24
2018-02-10T01:32:09.900Z,4.05
2018-02-10T01:33:09.927Z,4.05
2018-02-10T01:34:09.955Z,3.95
2018-02-10T01:35:09.983Z,3.95
2018-02-10T01:36:10.016Z,4.05
2018-02-10T01:37:10.039Z,4.05
2018-02-10T01:38:10.069Z,3.95
2018-02-10T01:39:10.094Z,3.95
2018-02-10T01:40:10.178Z,4.05
2018-02-10T01:41:10.154Z,3.95
2018-02-10T01:42:10.178Z,3.95
2018-02-10T01:43:10.209Z,4.05
2018-02-10T01:44:10.234Z,3.95
2018-02-10T01:45:10.262Z,3.95
2018-02-10T01:46:10.290Z,4.05
2018-02-10T01:47:10.318Z,4.05
2018-02-10T01:48:10.355Z,4.05
2018-02-10T01:49:10.377Z,4.05
2018-02-10T01:50:10.401Z,4.05
2018-02-10T01:51:10.430Z,3.95
2018-02-10T01:52:10.497Z,4.05
2018-02-10T01:53:10.485Z,4.05
2018-02-10T01:54:10.545Z,3.86
2018-02-10T01:55:10.541Z,3.95
2018-02-10T01:56:10.568Z,4.05
2018-02-10T01:57:10.595Z,3.95
2018-02-10T01:58:10.623Z,4.05
2018-02-10T01:59:10.652Z,4.05
2018-02-10T02:00:10.685Z,4.05
2018-02-10T02:01:10.706Z,4.05
2018-02-10T02:02:10.765Z,3.95
2018-02-10T02:03:10.763Z,3.95
2018-02-10T02:04:10.791Z,4.05
2018-02-10T02:05:10.818Z,4.05
2018-02-10T02:06:10.846Z,4.05
2018-02-10T02:07:10.894Z,3.95
2018-02-10T02:08:10.902Z,3.95
2018-02-10T02:09:10.930Z,3.95
2018-02-10T02:10:10.957Z,4.14
2018-02-10T02:11:10.986Z,3.95
2018-02-10T02:12:11.014Z,4.05
2018-02-10T02:13:11.041Z,4.05
2018-02-10T02:14:11.069Z,4.05
2018-02-10T02:15:11.097Z,3.95
2018-02-10T02:16:11.125Z,4.05
2018-02-10T02:17:11.152Z,4.05
2018-02-10T02:18:11.181Z,4.05
2018-02-10T02:19:11.212Z,3.95
2018-02-10T02:20:11.236Z,4.05
2018-02-10T02:21:11.263Z,3.95
2018-02-10T02:22:11.292Z,4.05
2018-02-10T02:23:11.320Z,4.05
2018-02-10T02:24:11.349Z,4.05
2018-02-10T02:25:11.376Z,3.95
2018-02-10T02:26:11.403Z,4.05
2018-02-10T02:27:11.431Z,4.05
2018-02-10T02:28:11.459Z,4.05
2018-02-10T02:29:11.486Z,4.05
2018-02-10T02:30:11.517Z,4.05
2018-02-10T02:31:11.543Z,4.05
2018-02-10T02:32:11.570Z,3.95
2018-02-10T02:33:11.597Z,3.95
2018-02-10T02:34:11.626Z,3.95
2018-02-10T02:35:11.654Z,4.05
2018-02-10T02:36:11.681Z,4.05
2018-02-10T02:37:11.710Z,4.14
2018-02-10T02:38:11.736Z,4.05
2018-02-10T02:39:11.765Z,3.86
2018-02-10T02:40:11.800Z,3.95
2018-02-10T02:41:11.868Z,3.95
2018-02-10T02:42:11.853Z,3.95
2018-02-10T02:43:11.878Z,3.95
2018-02-10T02:44:11.905Z,3.95
2018-02-10T02:45:11.931Z,4.05
2018-02-10T02:46:11.960Z,3.86
2018-02-10T02:47:11.987Z,4.05
2018-02-10T02:48:12.016Z,3.95
2018-02-10T02:49:12.043Z,3.95
2018-02-10T02:50:12.079Z,4.05
2018-02-10T02:51:12.112Z,4.14
2018-02-10T02:52:12.127Z,3.95
2018-02-10T02:53:12.154Z,3.96
2018-02-10T02:54:12.182Z,4.05
2018-02-10T02:55:12.211Z,3.95
2018-02-10T02:56:12.239Z,3.95
2018-02-10T02:57:12.265Z,4.05
2018-02-10T02:58:12.296Z,3.96
2018-02-10T02:59:12.330Z,4.05
2018-02-10T03:00:12.351Z,3.95
2018-02-10T03:01:12.377Z,3.95
2018-02-10T03:02:12.405Z,4.05
2018-02-10T03:03:12.433Z,3.95
2018-02-10T03:04:12.460Z,3.95
2018-02-10T03:05:12.487Z,3.95
2018-02-10T03:06:12.516Z,4.24
2018-02-10T03:07:12.544Z,4.24
2018-02-10T03:08:12.583Z,4.34
2018-02-10T03:09:12.601Z,4.14
2018-02-10T03:10:12.627Z,4.05
2018-02-10T03:11:12.655Z,3.95
2018-02-10T03:12:12.685Z,4.14
2018-02-10T03:13:12.710Z,4.24
2018-02-10T03:14:12.739Z,4.24
2018-02-10T03:15:12.767Z,4.24
2018-02-10T03:16:12.796Z,4.24
2018-02-10T03:17:12.822Z,4.05
2018-02-10T03:18:12.850Z,4.05
2018-02-10T03:19:12.921Z,3.95
2018-02-10T03:20:12.909Z,4.14
2018-02-10T03:21:12.933Z,3.86
2018-02-10T03:22:12.961Z,4.14
2018-02-10T03:23:13.013Z,4.34
2018-02-10T03:24:13.018Z,4.34
2018-02-10T03:25:13.045Z,4.24
2018-02-10T03:26:13.073Z,4.34
2018-02-10T03:27:13.101Z,4.14
2018-02-10T03:28:13.130Z,4.14
2018-02-10T03:29:13.156Z,4.24
2018-02-10T03:30:13.185Z,4.24
2018-02-10T03:31:13.219Z,4.24
2018-02-10T03:32:13.241Z,3.95
2018-02-10T03:33:13.267Z,4.24
2018-02-10T03:34:13.295Z,4.05
2018-02-10T03:35:13.324Z,4.24
2018-02-10T03:36:13.352Z,4.24
2018-02-10T03:37:13.381Z,4.24
2018-02-10T03:38:13.407Z,4.24
2018-02-10T03:39:13.435Z,4.24
2018-02-10T03:40:13.493Z,4.34
2018-02-10T03:41:13.491Z,4.14
2018-02-10T03:42:13.557Z,4.14
2018-02-10T03:43:13.562Z,4.24
2018-02-10T03:44:13.575Z,4.34
2018-02-10T03:45:13.604Z,4.24
2018-02-10T03:46:13.629Z,4.24
2018-02-10T03:47:13.657Z,4.14
2018-02-10T03:48:13.685Z,4.24
2018-02-10T03:49:13.713Z,4.24
2018-02-10T03:50:13.742Z,4.24
2018-02-10T03:51:13.807Z,4.34
2018-02-10T03:52:13.797Z,4.24
2018-02-10T03:53:13.824Z,4.24
2018-02-10T03:54:13.852Z,4.34
2018-02-10T03:55:13.881Z,4.24
2018-02-10T03:56:13.908Z,3.95
2018-02-10T03:57:13.935Z,4.34
2018-02-10T03:58:13.963Z,4.34
2018-02-10T03:59:13.991Z,4.34
2018-02-10T04:00:14.020Z,4.14
2018-02-10T04:01:14.047Z,4.14
2018-02-10T04:02:14.075Z,4.14
2018-02-10T04:03:14.103Z,4.24
2018-02-10T04:04:14.131Z,4.24
2018-02-10T04:05:14.158Z,4.24
2018-02-10T04:06:14.186Z,4.14
2018-02-10T04:07:14.214Z,4.24
2018-02-10T04:08:14.242Z,4.24
2018-02-10T04:09:14.270Z,4.14
2018-02-10T04:10:14.298Z,4.14
2018-02-10T04:11:14.326Z,4.14
2018-02-10T04:12:14.354Z,4.24
2018-02-10T04:13:14.381Z,4.24
2018-02-10T04:14:14.409Z,4.14
2018-02-10T04:15:14.439Z,4.34
2018-02-10T04:16:14.466Z,4.24
2018-02-10T04:17:14.492Z,4.24
2018-02-10T04:18:14.520Z,4.14
2018-02-10T04:19:14.548Z,4.24
2018-02-10T04:20:14.578Z,4.14
2018-02-10T04:21:14.603Z,3.96
2018-02-10T04:22:14.632Z,4.05
2018-02-10T04:23:14.660Z,4.24
2018-02-10T04:24:14.688Z,4.34
2018-02-10T04:25:14.716Z,4.14
2018-02-10T04:26:14.743Z,4.24
2018-02-10T04:27:14.772Z,4.14
2018-02-10T04:28:14.800Z,4.24
2018-02-10T04:29:14.826Z,4.24
2018-02-10T04:30:14.857Z,4.24
2018-02-10T04:31:14.883Z,4.24
2018-02-10T04:32:14.934Z,4.05
2018-02-10T04:33:14.938Z,4.34
2018-02-10T04:34:14.967Z,4.14
2018-02-10T04:35:14.994Z,4.24
2018-02-10T04:36:15.041Z,4.14
2018-02-10T04:37:15.050Z,3.95
2018-02-10T04:38:15.078Z,4.34
2018-02-10T04:39:15.105Z,4.24
2018-02-10T04:40:15.134Z,4.14
2018-02-10T04:41:15.162Z,4.24
2018-02-10T04:42:15.189Z,3.95
2018-02-10T04:43:15.217Z,4.05
2018-02-10T04:44:15.247Z,4.05
2018-02-10T04:45:15.273Z,4.14
2018-02-10T04:46:15.301Z,4.24
2018-02-10T04:47:15.342Z,4.14
2018-02-10T04:48:15.356Z,4.14
2018-02-10T04:49:15.384Z,4.14
2018-02-10T04:50:15.412Z,4.14
2018-02-10T04:51:15.440Z,4.14
2018-02-10T04:52:15.503Z,4.05
2018-02-10T04:53:15.495Z,3.95
2018-02-10T04:54:15.524Z,4.14
2018-02-10T04:55:15.551Z,4.14
2018-02-10T04:56:15.579Z,4.24
2018-02-10T04:57:15.607Z,4.05
2018-02-10T04:58:15.634Z,4.05
2018-02-10T04:59:15.663Z,3.95
2018-02-10T05:00:15.691Z,4.24
2018-02-10T05:01:15.719Z,3.95
2018-02-10T05:02:15.747Z,4.14
2018-02-10T05:03:15.774Z,4.05
2018-02-10T05:04:15.803Z,4.14
2018-02-10T05:05:15.875Z,4.34
2018-02-10T05:06:15.858Z,4.05
2018-02-10T05:07:15.885Z,4.24
2018-02-10T05:08:15.949Z,4.34
2018-02-10T05:09:15.943Z,3.95
2018-02-10T05:10:15.970Z,4.05
2018-02-10T05:11:15.997Z,4.14
2018-02-10T05:12:16.049Z,4.14
2018-02-10T05:13:16.053Z,4.05
2018-02-10T05:14:16.081Z,4.05
2018-02-10T05:15:16.109Z,3.95
2018-02-10T05:16:16.137Z,4.05
2018-02-10T05:17:16.164Z,4.05
2018-02-10T05:18:16.192Z,3.96
2018-02-10T05:19:16.221Z,3.96
2018-02-10T05:20:16.248Z,4.05
2018-02-10T05:21:16.277Z,3.95
2018-02-10T05:22:16.306Z,4.05
2018-02-10T05:23:16.332Z,3.95
2018-02-10T05:24:16.360Z,3.95
2018-02-10T05:25:16.387Z,3.95
2018-02-10T05:26:16.415Z,3.95
2018-02-10T05:27:16.443Z,4.05
2018-02-10T05:28:16.512Z,3.96
2018-02-10T05:29:16.498Z,3.95
2018-02-10T05:30:16.558Z,4.14
2018-02-10T05:31:16.557Z,3.95
2018-02-10T05:32:16.584Z,3.95
2018-02-10T05:33:16.613Z,3.95
2018-02-10T05:34:16.638Z,4.05
2018-02-10T05:35:16.697Z,4.05
2018-02-10T05:36:16.694Z,3.95
2018-02-10T05:37:16.771Z,4.05
2018-02-10T05:38:16.749Z,3.95
2018-02-10T05:39:16.777Z,3.95
2018-02-10T05:40:16.806Z,4.05
2018-02-10T05:41:16.834Z,4.05
2018-02-10T05:42:16.878Z,4.05
2018-02-10T05:43:16.890Z,3.96
2018-02-10T05:44:16.917Z,4.05
2018-02-10T05:45:16.962Z,3.95
2018-02-10T05:46:16.973Z,4.05
2018-02-10T05:47:17.001Z,4.14
2018-02-10T05:48:17.029Z,4.05
2018-02-10T05:49:17.076Z,4.14
2018-02-10T05:50:17.084Z,4.14
2018-02-10T05:51:17.112Z,4.05
2018-02-10T05:52:17.140Z,4.14
2018-02-10T05:53:17.167Z,4.14
2018-02-10T05:54:17.195Z,4.05
2018-02-10T05:55:17.222Z,3.95
2018-02-10T05:56:17.251Z,3.95
2018-02-10T05:57:17.279Z,4.05
2018-02-10T05:58:17.335Z,3.95
2018-02-10T05:59:17.335Z,3.95
2018-02-10T06:00:17.364Z,4.05
2018-02-10T06:01:17.390Z,3.95
2018-02-10T06:02:17.419Z,3.95
2018-02-10T06:03:17.446Z,3.95
2018-02-10T06:04:17.474Z,4.05
2018-02-10T06:05:17.501Z,4.05
2018-02-10T06:06:17.529Z,4.05
2018-02-10T06:07:17.559Z,4.05
2018-02-10T06:08:17.585Z,4.05
2018-02-10T06:09:17.648Z,4.34
2018-02-10T06:10:17.641Z,4.14
2018-02-10T06:11:17.668Z,4.14
2018-02-10T06:12:17.697Z,4.05
2018-02-10T06:13:17.726Z,4.05
2018-02-10T06:14:17.752Z,4.05
2018-02-10T06:15:17.780Z,4.05
2018-02-10T06:16:17.808Z,4.05
2018-02-10T06:17:17.848Z,4.05
2018-02-10T06:18:17.863Z,4.05
2018-02-10T06:19:17.891Z,4.05
2018-02-10T06:20:17.924Z,4.24
2018-02-10T06:21:17.947Z,4.14
2018-02-10T06:22:17.976Z,4.14
2018-02-10T06:23:18.004Z,4.05
2018-02-10T06:24:18.031Z,4.05
2018-02-10T06:25:18.058Z,4.05
2018-02-10T06:26:18.086Z,4.05
2018-02-10T06:27:18.115Z,4.05
2018-02-10T06:28:18.159Z,4.05
2018-02-10T06:29:18.169Z,4.05
2018-02-10T06:30:18.221Z,3.95
2018-02-10T06:31:18.225Z,4.14
2018-02-10T06:32:18.254Z,4.14
2018-02-10T06:33:18.281Z,4.05
2018-02-10T06:34:18.312Z,4.14
2018-02-10T06:35:18.336Z,4.05
2018-02-10T06:36:18.367Z,4.24
2018-02-10T06:37:18.391Z,4.05
2018-02-10T06:38:18.420Z,4.14
2018-02-10T06:39:18.449Z,4.14
2018-02-10T06:40:18.512Z,4.14
2018-02-10T06:41:18.507Z,4.14
2018-02-10T06:42:18.532Z,4.14
2018-02-10T06:43:18.561Z,4.24
2018-02-10T06:44:18.588Z,4.14
2018-02-10T06:45:18.615Z,4.14
2018-02-10T06:46:18.657Z,4.14
2018-02-10T06:47:18.671Z,4.14
2018-02-10T06:48:18.701Z,4.05
2018-02-10T06:49:18.727Z,4.14
2018-02-10T06:50:18.754Z,4.14
2018-02-10T06:51:18.806Z,4.14
2018-02-10T06:52:18.861Z,4.05
2018-02-10T06:53:18.837Z,4.14
2018-02-10T06:54:18.865Z,4.05
2018-02-10T06:55:18.895Z,4.14
2018-02-10T06:56:18.922Z,4.05
2018-02-10T06:57:18.949Z,4.14
2018-02-10T06:58:18.976Z,4.14
2018-02-10T06:59:19.008Z,4.05
2018-02-10T07:00:19.038Z,4.05
2018-02-10T07:01:19.062Z,4.14
2018-02-10T07:02:19.088Z,4.24
2018-02-10T07:03:19.117Z,4.44
2018-02-10T07:04:19.145Z,4.05
2018-02-10T07:05:19.171Z,4.05
2018-02-10T07:06:19.200Z,4.05
2018-02-10T07:07:19.228Z,4.05
2018-02-10T07:08:19.256Z,4.44
2018-02-10T07:09:19.283Z,3.95
2018-02-10T07:10:19.310Z,4.34
2018-02-10T07:11:19.339Z,4.24
2018-02-10T07:12:19.367Z,4.14
2018-02-10T07:13:19.394Z,4.14
2018-02-10T07:14:19.422Z,4.24
2018-02-10T07:15:19.450Z,4.05
2018-02-10T07:16:19.520Z,3.95
2018-02-10T07:17:19.505Z,3.95
2018-02-10T07:18:19.534Z,4.44
2018-02-10T07:19:19.562Z,4.44
2018-02-10T07:20:19.590Z,4.05
2018-02-10T07:21:19.616Z,3.96
2018-02-10T07:22:19.667Z,4.34
2018-02-10T07:23:19.696Z,3.96
2018-02-10T07:24:19.728Z,4.44
2018-02-10T07:25:19.728Z,4.44
2018-02-10T07:26:19.755Z,4.05
2018-02-10T07:27:19.783Z,3.96
2018-02-10T07:28:19.814Z,4.05
2018-02-10T07:29:19.839Z,4.44
2018-02-10T07:30:19.867Z,4.34
2018-02-10T07:31:19.896Z,4.44
2018-02-10T07:32:19.923Z,4.14
2018-02-10T07:33:19.950Z,3.96
2018-02-10T07:34:19.979Z,4.34
2018-02-10T07:35:20.007Z,4.44
2018-02-10T07:36:20.035Z,4.24
2018-02-10T07:37:20.069Z,4.05
2018-02-10T07:38:20.117Z,4.24
2018-02-10T07:39:20.118Z,4.14
2018-02-10T07:40:20.146Z,4.14
2018-02-10T07:41:20.173Z,4.34
2018-02-10T07:42:20.205Z,4.44
2018-02-10T07:43:20.229Z,4.44
2018-02-10T07:44:20.258Z,4.14
2018-02-10T07:45:20.284Z,4.44
2018-02-10T07:46:20.355Z,3.96
2018-02-10T07:47:20.341Z,3.96
2018-02-10T07:48:20.369Z,4.44
2018-02-10T07:49:20.396Z,4.34
2018-02-10T07:50:20.424Z,4.44
2018-02-10T07:51:20.453Z,3.96
2018-02-10T07:52:20.480Z,4.44
2018-02-10T07:53:20.559Z,4.14
2018-02-10T07:54:20.539Z,4.44
2018-02-10T07:55:20.564Z,3.96
2018-02-10T07:56:20.593Z,4.14
2018-02-10T07:57:20.619Z,4.24
2018-02-10T07:58:20.647Z,3.96
2018-02-10T07:59:20.675Z,4.44
2018-02-10T08:00:20.703Z,4.14
2018-02-10T08:01:20.733Z,4.44
2018-02-10T08:02:20.759Z,4.14
2018-02-10T08:03:20.808Z,4.44
2018-02-10T08:04:20.815Z,3.96
2018-02-10T08:05:20.844Z,4.53
2018-02-10T08:06:20.883Z,4.44
2018-02-10T08:07:20.898Z,4.24
2018-02-10T08:08:20.927Z,4.44
2018-02-10T08:09:20.952Z,4.24
2018-02-10T08:10:20.999Z,4.24
2018-02-10T08:11:21.010Z,4.44
2018-02-10T08:12:21.038Z,3.96
2018-02-10T08:13:21.065Z,4.44
2018-02-10T08:14:21.093Z,4.24
2018-02-10T08:15:21.124Z,4.44
2018-02-10T08:16:21.149Z,4.24
2018-02-10T08:17:21.176Z,4.44
2018-02-10T08:18:21.205Z,4.24
2018-02-10T08:19:21.232Z,4.34
2018-02-10T08:20:21.271Z,4.34
2018-02-10T08:21:21.300Z,4.24
2018-02-10T08:22:21.316Z,4.24
2018-02-10T08:23:21.344Z,3.96
2018-02-10T08:24:21.371Z,4.05
2018-02-10T08:25:21.399Z,4.05
2018-02-10T08:26:21.427Z,4.53
2018-02-10T08:27:21.455Z,4.44
2018-02-10T08:28:21.483Z,4.34
2018-02-10T08:29:21.510Z,4.05
2018-02-10T08:30:21.622Z,4.24
2018-02-10T08:31:21.568Z,4.24
2018-02-10T08:32:21.595Z,4.44
2018-02-10T08:33:21.622Z,4.44
2018-02-10T08:34:21.650Z,4.24
2018-02-10T08:35:21.712Z,4.34
2018-02-10T08:36:21.707Z,4.24
2018-02-10T08:37:21.761Z,4.24
2018-02-10T08:38:21.761Z,4.44
2018-02-10T08:39:21.790Z,4.24
2018-02-10T08:40:21.818Z,4.24
2018-02-10T08:41:21.845Z,4.44
2018-02-10T08:42:21.873Z,4.34
2018-02-10T08:43:21.901Z,4.44
2018-02-10T08:44:21.928Z,4.24
2018-02-10T08:45:21.956Z,4.24
2018-02-10T08:46:22.005Z,4.34
2018-02-10T08:47:22.013Z,4.34
2018-02-10T08:48:22.041Z,4.24
2018-02-10T08:49:22.068Z,4.34
2018-02-10T08:50:22.098Z,4.44
2018-02-10T08:51:22.127Z,4.34
2018-02-10T08:52:22.152Z,4.34
2018-02-10T08:53:22.180Z,4.24
2018-02-10T08:54:22.207Z,4.24
2018-02-10T08:55:22.268Z,4.34
2018-02-10T08:56:22.263Z,4.24
2018-02-10T08:57:22.291Z,4.44
2018-02-10T08:58:22.318Z,4.24
2018-02-10T08:59:22.347Z,4.34
2018-02-10T09:00:22.375Z,4.34
2018-02-10T09:01:22.402Z,4.34
2018-02-10T09:02:22.431Z,4.24
2018-02-10T09:03:22.473Z,4.34
2018-02-10T09:04:22.486Z,4.34
2018-02-10T09:05:22.515Z,4.34
2018-02-10T09:06:22.566Z,4.24
2018-02-10T09:07:22.570Z,4.44
2018-02-10T09:08:22.598Z,4.24
2018-02-10T09:09:22.661Z,4.44
2018-02-10T09:10:22.654Z,4.34
2018-02-10T09:11:22.695Z,4.34
2018-02-10T09:12:22.738Z,4.34
2018-02-10T09:13:22.737Z,4.44
2018-02-10T09:14:22.765Z,4.34
2018-02-10T09:15:22.793Z,4.34
2018-02-10T09:16:22.822Z,4.34
2018-02-10T09:17:22.852Z,4.34
2018-02-10T09:18:22.877Z,4.34
2018-02-10T09:19:22.908Z,4.24
2018-02-10T09:20:22.963Z,4.44
2018-02-10T09:21:23.001Z,4.24
2018-02-10T09:22:22.989Z,4.34
2018-02-10T09:23:23.017Z,4.44
2018-02-10T09:24:23.045Z,4.44
2018-02-10T09:25:23.072Z,4.44
2018-02-10T09:26:23.138Z,4.24
2018-02-10T09:27:23.128Z,4.34
2018-02-10T09:28:23.156Z,4.34
2018-02-10T09:29:23.184Z,4.34
2018-02-10T09:30:23.212Z,4.34
2018-02-10T09:31:23.240Z,4.44
2018-02-10T09:32:23.268Z,4.44
2018-02-10T09:33:23.303Z,4.24
2018-02-10T09:34:23.324Z,4.24
2018-02-10T09:35:23.351Z,4.24
2018-02-10T09:36:23.380Z,4.34
2018-02-10T09:37:23.407Z,4.24
2018-02-10T09:38:23.435Z,4.24
2018-02-10T09:39:23.519Z,4.34
2018-02-10T09:40:23.491Z,4.34
2018-02-10T09:41:23.518Z,4.24
2018-02-10T09:42:23.547Z,4.34
2018-02-10T09:43:23.576Z,4.44
2018-02-10T09:44:23.606Z,4.24
2018-02-10T09:45:23.630Z,4.24
2018-02-10T09:46:23.659Z,4.34
2018-02-10T09:47:23.690Z,4.34
2018-02-10T09:48:23.715Z,4.24
2018-02-10T09:49:23.742Z,4.34
2018-02-10T09:50:23.770Z,4.14
2018-02-10T09:51:23.798Z,4.14
2018-02-10T09:52:23.827Z,4.24
2018-02-10T09:53:23.853Z,4.34
2018-02-10T09:54:23.882Z,4.34
2018-02-10T09:55:23.910Z,4.34
2018-02-10T09:56:23.939Z,4.24
2018-02-10T09:57:23.965Z,4.34
2018-02-10T09:58:24.013Z,4.34
2018-02-10T09:59:24.022Z,4.14
2018-02-10T10:00:24.050Z,4.24
2018-02-10T10:01:24.077Z,4.44
2018-02-10T10:02:24.105Z,4.34
2018-02-10T10:03:24.133Z,4.34
2018-02-10T10:04:24.201Z,4.24
2018-02-10T10:05:24.189Z,4.44
2018-02-10T10:06:24.217Z,4.34
2018-02-10T10:07:24.245Z,4.34
2018-02-10T10:08:24.273Z,4.14
2018-02-10T10:09:24.300Z,4.24
2018-02-10T10:10:24.329Z,4.44
2018-02-10T10:11:24.381Z,4.24
2018-02-10T10:12:24.385Z,4.14
2018-02-10T10:13:24.412Z,4.34
2018-02-10T10:14:24.440Z,4.34
2018-02-10T10:15:24.470Z,4.34
2018-02-10T10:16:24.496Z,4.44
2018-02-10T10:17:24.523Z,4.24
2018-02-10T10:18:24.552Z,4.24
2018-02-10T10:19:24.580Z,4.34
2018-02-10T10:20:24.608Z,4.34
2018-02-10T10:21:24.636Z,4.24
2018-02-10T10:22:24.664Z,4.24
2018-02-10T10:23:24.697Z,4.34
2018-02-10T10:24:24.720Z,4.53
2018-02-10T10:25:24.748Z,4.53
2018-02-10T10:26:24.775Z,4.24
2018-02-10T10:27:24.808Z,4.53
2018-02-10T10:28:24.831Z,4.24
2018-02-10T10:29:24.858Z,4.34
2018-02-10T10:30:24.886Z,4.34
2018-02-10T10:31:24.915Z,4.44
2018-02-10T10:32:24.946Z,4.63
2018-02-10T10:33:24.971Z,4.34
2018-02-10T10:34:24.998Z,4.44
2018-02-10T10:35:25.029Z,4.34
2018-02-10T10:36:25.055Z,4.44
2018-02-10T10:37:25.098Z,4.24
2018-02-10T10:38:25.110Z,4.44
2018-02-10T10:39:25.138Z,4.44
2018-02-10T10:40:25.166Z,4.63
2018-02-10T10:41:25.194Z,4.44
2018-02-10T10:42:25.224Z,4.53
2018-02-10T10:43:25.251Z,4.34
2018-02-10T10:44:25.279Z,4.34
2018-02-10T10:45:25.305Z,4.34
2018-02-10T10:46:25.334Z,4.34
2018-02-10T10:47:25.362Z,4.63
2018-02-10T10:48:25.390Z,4.44
2018-02-10T10:49:25.417Z,4.63
2018-02-10T10:50:25.446Z,4.34
2018-02-10T10:51:25.474Z,4.34
2018-02-10T10:52:25.502Z,4.34
2018-02-10T10:53:25.529Z,4.34
2018-02-10T10:54:25.557Z,4.34
2018-02-10T10:55:25.585Z,4.34
2018-02-10T10:56:25.613Z,4.34
2018-02-10T10:57:25.641Z,4.44
2018-02-10T10:58:25.672Z,4.44
2018-02-10T10:59:25.697Z,4.44
2018-02-10T11:00:25.726Z,4.34
2018-02-10T11:01:25.752Z,4.34
2018-02-10T11:02:25.781Z,4.34
2018-02-10T11:03:25.841Z,4.44
2018-02-10T11:04:25.837Z,4.53
2018-02-10T11:05:25.864Z,4.34
2018-02-10T11:06:25.930Z,4.44
2018-02-10T11:07:25.922Z,4.44
2018-02-10T11:08:25.949Z,4.44
2018-02-10T11:09:25.976Z,4.34
2018-02-10T11:10:26.004Z,4.14
2018-02-10T11:11:26.032Z,4.44
2018-02-10T11:12:26.061Z,4.44
2018-02-10T11:13:26.124Z,4.53
2018-02-10T11:14:26.115Z,4.44
2018-02-10T11:15:26.144Z,4.44
2018-02-10T11:16:26.172Z,4.44
2018-02-10T11:17:26.199Z,4.44
2018-02-10T11:18:26.228Z,4.53
2018-02-10T11:19:26.255Z,4.53
2018-02-10T11:20:26.283Z,4.44
2018-02-10T11:21:26.311Z,4.63
2018-02-10T11:22:26.340Z,4.44
2018-02-10T11:23:26.368Z,4.63
2018-02-10T11:24:26.395Z,4.53
2018-02-10T11:25:26.422Z,4.44
2018-02-10T11:26:26.451Z,4.44
2018-02-10T11:27:26.479Z,4.53
2018-02-10T11:28:26.508Z,4.63
2018-02-10T11:29:26.558Z,4.44
2018-02-10T11:30:26.562Z,4.53
2018-02-10T11:31:26.591Z,4.53
2018-02-10T11:32:26.619Z,4.44
2018-02-10T11:33:26.651Z,4.53
2018-02-10T11:34:26.687Z,4.44
2018-02-10T11:35:26.702Z,4.53
2018-02-10T11:36:26.731Z,4.53
2018-02-10T11:37:26.758Z,4.63
2018-02-10T11:38:26.786Z,4.44
2018-02-10T11:39:26.824Z,4.53
2018-02-10T11:40:26.842Z,4.53
2018-02-10T11:41:26.870Z,4.44
2018-02-10T11:42:26.898Z,4.63
2018-02-10T11:43:26.925Z,4.53
2018-02-10T11:44:26.955Z,4.53
2018-02-10T11:45:26.981Z,4.34
2018-02-10T11:46:27.010Z,4.24
2018-02-10T11:47:27.038Z,4.53
2018-02-10T11:48:27.086Z,4.34
2018-02-10T11:49:27.103Z,4.34
2018-02-10T11:50:27.121Z,4.24
2018-02-10T11:51:27.153Z,4.24
2018-02-10T11:52:27.178Z,4.34
2018-02-10T11:53:27.206Z,4.34
2018-02-10T11:54:27.233Z,4.34
2018-02-10T11:55:27.264Z,4.53
2018-02-10T11:56:27.290Z,4.24
2018-02-10T11:57:27.318Z,4.34
2018-02-10T11:58:27.346Z,4.24
2018-02-10T11:59:27.442Z,4.24
2018-02-10T12:00:27.441Z,4.34
2018-02-10T12:01:27.428Z,4.53
2018-02-10T12:02:27.457Z,4.34
2018-02-10T12:03:27.485Z,4.34
2018-02-10T12:04:27.513Z,4.34
2018-02-10T12:05:27.589Z,4.44
2018-02-10T12:06:27.568Z,4.34
2018-02-10T12:07:27.596Z,4.44
2018-02-10T12:08:27.624Z,4.34
2018-02-10T12:09:27.652Z,4.44
2018-02-10T12:10:27.679Z,4.44
2018-02-10T12:11:27.709Z,4.44
2018-02-10T12:12:27.736Z,4.24
2018-02-10T12:13:27.767Z,4.34
2018-02-10T12:14:27.792Z,4.24
2018-02-10T12:15:27.820Z,4.34
2018-02-10T12:16:27.848Z,4.44
2018-02-10T12:17:27.875Z,4.34
2018-02-10T12:18:27.903Z,4.34
2018-02-10T12:19:27.958Z,4.44
2018-02-10T12:20:27.959Z,4.44
2018-02-10T12:21:27.987Z,4.44
2018-02-10T12:22:28.015Z,4.34
2018-02-10T12:23:28.043Z,4.34
2018-02-10T12:24:28.077Z,4.44
2018-02-10T12:25:28.098Z,4.44
2018-02-10T12:26:28.127Z,4.44
2018-02-10T12:27:28.155Z,4.72
2018-02-10T12:28:28.183Z,4.34
2018-02-10T12:29:28.210Z,4.44
2018-02-10T12:30:28.239Z,4.44
2018-02-10T12:31:28.268Z,4.53
2018-02-10T12:32:28.294Z,4.63
2018-02-10T12:33:28.321Z,4.72
2018-02-10T12:34:28.350Z,4.72
2018-02-10T12:35:28.378Z,4.72
2018-02-10T12:36:28.406Z,4.72
2018-02-10T12:37:28.433Z,4.72
2018-02-10T12:38:28.461Z,4.24
2018-02-10T12:39:28.490Z,4.44
2018-02-10T12:40:28.519Z,4.44
2018-02-10T12:41:28.545Z,4.72
2018-02-10T12:42:28.573Z,4.72
2018-02-10T12:43:28.601Z,4.72
2018-02-10T12:44:28.630Z,4.63
2018-02-10T12:45:28.656Z,4.63
2018-02-10T12:46:28.685Z,4.53
2018-02-10T12:47:28.713Z,4.72
2018-02-10T12:48:28.741Z,4.63
2018-02-10T12:49:28.768Z,4.63
2018-02-10T12:50:28.797Z,4.63
2018-02-10T12:51:28.824Z,4.53
2018-02-10T12:52:28.852Z,4.63
2018-02-10T12:53:28.880Z,4.63
2018-02-10T12:54:28.908Z,4.63
2018-02-10T12:55:28.937Z,4.63
2018-02-10T12:56:28.964Z,4.63
2018-02-10T12:57:28.992Z,4.63
2018-02-10T12:58:29.025Z,4.53
2018-02-10T12:59:29.047Z,4.53
2018-02-10T13:00:29.075Z,4.53
2018-02-10T13:01:29.102Z,4.63
2018-02-10T13:02:29.131Z,4.63
2018-02-10T13:03:29.159Z,4.72
2018-02-10T13:04:29.196Z,4.72
2018-02-10T13:05:29.214Z,4.63
2018-02-10T13:06:29.242Z,4.63
2018-02-10T13:07:29.270Z,4.72
2018-02-10T13:08:29.315Z,4.63
2018-02-10T13:09:29.325Z,4.63
2018-02-10T13:10:29.354Z,4.63
2018-02-10T13:11:29.382Z,4.63
2018-02-10T13:12:29.448Z,4.63
2018-02-10T13:13:29.437Z,4.63
2018-02-10T13:14:29.511Z,4.63
2018-02-10T13:15:29.493Z,4.53
2018-02-10T13:16:29.522Z,4.63
2018-02-10T13:17:29.556Z,4.72
2018-02-10T13:18:29.577Z,4.63